Time,TemperatureF,DewpointF,PressureIn,WindDirection,WindDirectionDegrees,WindSpeedMPH,WindSpeedGustMPH,Humidity,HourlyPrecipIn,Conditions,Clouds,dailyrainin,SolarRadiationWatts/m^2,SoftwareType,DateUTC
2013-03-15 00:00:00,39.5,17.7,30.05,North,32767,-999.0,0.0,41,0.00,,,0.00,0,Wunderground v.1.15,2013-03-15 04:00:00,
2013-03-15 00:05:00,39.3,17.5,30.05,North,32767,-999.0,0.0,41,0.00,,,0.00,0,Wunderground v.1.15,2013-03-15 04:05:00,
2013-03-15 00:10:00,39.1,16.8,30.05,North,32767,-999.0,0.0,40,0.00,,,0.00,0,Wunderground v.1.15,2013-03-15 04:10:00,
2013-03-15 00:15:00,38.9,17.2,30.05,North,32767,-999.0,0.0,41,0.00,,,0.00,0,Wunderground v.1.15,2013-03-15 04:15:00,
2013-03-15 00:20:00,38.6,17.5,30.06,North,32767,-999.0,0.0,42,0.00,,,0.00,0,Wunderground v.1.15,2013-03-15 04:20:00,
2013-03-15 00:25:00,38.8,17.6,30.06,North,32767,-999.0,0.0,42,0.00,,,0.00,0,Wunderground v.1.15,2013-03-15 04:25:00,
2013-03-15 00:30:00,38.8,17.6,30.06,North,32767,-999.0,0.0,42,0.00,,,0.00,0,Wunderground v.1.15,2013-03-15 04:30:00,
2013-03-15 00:35:00,38.6,17.5,30.06,North,32767,-999.0,0.0,42,0.00,,,0.00,0,Wunderground v.1.15,2013-03-15 04:35:00,
2013-03-15 00:40:00,38.6,17.5,30.06,North,32767,-999.0,0.0,42,0.00,,,0.00,0,Wunderground v.1.15,2013-03-15 04:40:00,
2013-03-15 00:45:00,38.6,18.0,30.06,North,32767,-999.0,0.0,43,0.00,,,0.00,0,Wunderground v.1.15,2013-03-15 04:45:00,
2013-03-15 00:55:00,39.1,16.8,30.07,North,32767,-999.0,0.0,40,0.00,,,0.00,0,Wunderground v.1.15,2013-03-15 04:55:00,
2013-03-15 01:00:00,39.2,18.5,30.07,North,32767,-999.0,0.0,43,0.00,,,0.00,0,Wunderground v.1.15,2013-03-15 05:00:00,
2013-03-15 01:05:00,39.1,17.9,30.06,North,32767,-999.0,0.0,42,0.00,,,0.00,0,Wunderground v.1.15,2013-03-15 05:05:00,
2013-03-15 01:15:00,39.2,16.9,30.06,North,32767,-999.0,0.0,40,0.00,,,0.00,0,Wunderground v.1.15,2013-03-15 05:15:00,
2013-03-15 01:20:00,39.3,17.0,30.07,North,32767,-999.0,0.0,40,0.00,,,0.00,0,Wunderground v.1.15,2013-03-15 05:20:00,
2013-03-15 01:30:00,39.3,16.4,30.07,North,32767,-999.0,0.0,39,0.00,,,0.00,0,Wunderground v.1.15,2013-03-15 05:30:00,
2013-03-15 01:35:00,39.3,17.5,30.07,North,32767,-999.0,0.0,41,0.00,,,0.00,0,Wunderground v.1.15,2013-03-15 05:35:00,
2013-03-15 01:40:00,39.2,16.9,30.07,North,32767,-999.0,0.0,40,0.00,,,0.00,0,Wunderground v.1.15,2013-03-15 05:40:00,
2013-03-15 01:50:00,38.9,17.2,30.07,North,32767,-999.0,0.0,41,0.00,,,0.00,0,Wunderground v.1.15,2013-03-15 05:50:00,
2013-03-15 01:55:00,38.8,16.5,30.07,North,32767,-999.0,0.0,40,0.00,,,0.00,0,Wunderground v.1.15,2013-03-15 05:55:00,
2013-03-15 02:00:00,38.6,16.3,30.07,North,32767,-999.0,0.0,40,0.00,,,0.00,0,Wunderground v.1.15,2013-03-15 06:00:00,
2013-03-15 02:10:00,38.3,16.1,30.07,North,32767,-999.0,0.0,40,0.00,,,0.00,0,Wunderground v.1.15,2013-03-15 06:10:00,
2013-03-15 02:15:00,38.3,16.6,30.07,North,32767,-999.0,0.0,41,0.00,,,0.00,0,Wunderground v.1.15,2013-03-15 06:15:00,
2013-03-15 02:25:00,37.6,17.6,30.07,North,32767,-999.0,0.0,44,0.00,,,0.00,0,Wunderground v.1.15,2013-03-15 06:25:00,
2013-03-15 02:30:00,37.3,17.9,30.07,North,32767,-999.0,0.0,45,0.00,,,0.00,0,Wunderground v.1.15,2013-03-15 06:30:00,
2013-03-15 02:40:00,37.2,17.3,30.06,North,32767,-999.0,0.0,44,0.00,,,0.00,0,Wunderground v.1.15,2013-03-15 06:40:00,
2013-03-15 02:45:00,37.2,17.3,30.06,North,32767,-999.0,0.0,44,0.00,,,0.00,0,Wunderground v.1.15,2013-03-15 06:45:00,
2013-03-15 02:55:00,37.2,17.3,30.06,North,32767,-999.0,0.0,44,0.00,,,0.00,0,Wunderground v.1.15,2013-03-15 06:55:00,
2013-03-15 03:05:00,36.8,17.4,30.06,North,32767,-999.0,0.0,45,0.00,,,0.00,0,Wunderground v.1.15,2013-03-15 07:05:00,
2013-03-15 03:10:00,36.5,16.6,30.06,North,32767,-999.0,0.0,44,0.00,,,0.00,0,Wunderground v.1.15,2013-03-15 07:10:00,
2013-03-15 03:15:00,36.3,16.4,30.06,North,32767,-999.0,0.0,44,0.00,,,0.00,0,Wunderground v.1.15,2013-03-15 07:15:00,
2013-03-15 03:25:00,36.0,17.2,30.05,North,32767,-999.0,0.0,46,0.00,,,0.00,0,Wunderground v.1.15,2013-03-15 07:25:00,
2013-03-15 03:35:00,36.0,16.2,30.04,North,32767,-999.0,0.0,44,0.00,,,0.00,0,Wunderground v.1.15,2013-03-15 07:35:00,
2013-03-15 03:45:00,37.2,17.3,30.04,North,32767,-999.0,0.0,44,0.00,,,0.00,0,Wunderground v.1.15,2013-03-15 07:45:00,
2013-03-15 03:50:00,37.5,17.0,30.04,North,32767,-999.0,0.0,43,0.00,,,0.00,0,Wunderground v.1.15,2013-03-15 07:50:00,
2013-03-15 04:00:00,37.6,16.0,30.04,North,32767,-999.0,0.0,41,0.00,,,0.00,0,Wunderground v.1.15,2013-03-15 08:00:00,
2013-03-15 04:05:00,37.6,16.5,30.03,North,32767,-999.0,0.0,42,0.00,,,0.00,0,Wunderground v.1.15,2013-03-15 08:05:00,
2013-03-15 04:15:00,37.3,16.3,30.03,North,32767,-999.0,0.0,42,0.00,,,0.00,0,Wunderground v.1.15,2013-03-15 08:15:00,
2013-03-15 04:20:00,37.2,16.7,30.03,North,32767,-999.0,0.0,43,0.00,,,0.00,0,Wunderground v.1.15,2013-03-15 08:20:00,
2013-03-15 04:25:00,36.6,17.2,30.03,North,32767,-999.0,0.0,45,0.00,,,0.00,0,Wunderground v.1.15,2013-03-15 08:25:00,
2013-03-15 04:35:00,35.6,16.8,30.03,North,32767,-999.0,0.0,46,0.00,,,0.00,0,Wunderground v.1.15,2013-03-15 08:35:00,
2013-03-15 04:40:00,35.5,17.2,30.03,North,32767,-999.0,0.0,47,0.00,,,0.00,0,Wunderground v.1.15,2013-03-15 08:40:00,
2013-03-15 04:50:00,34.9,18.6,30.04,North,32767,-999.0,0.0,51,0.00,,,0.00,0,Wunderground v.1.15,2013-03-15 08:50:00,
2013-03-15 05:00:00,34.3,17.1,30.04,North,32767,-999.0,0.0,49,0.00,,,0.00,0,Wunderground v.1.15,2013-03-15 09:00:00,
2013-03-15 05:05:00,34.4,17.2,30.03,North,32767,-999.0,0.0,49,0.00,,,0.00,0,Wunderground v.1.15,2013-03-15 09:05:00,
2013-03-15 05:10:00,34.7,17.0,30.03,North,32767,-999.0,0.0,48,0.00,,,0.00,0,Wunderground v.1.15,2013-03-15 09:10:00,
2013-03-15 05:20:00,35.0,18.2,30.04,North,32767,-999.0,0.0,50,0.00,,,0.00,0,Wunderground v.1.15,2013-03-15 09:20:00,
2013-03-15 05:25:00,35.0,17.3,30.04,North,32767,-999.0,0.0,48,0.00,,,0.00,0,Wunderground v.1.15,2013-03-15 09:25:00,
2013-03-15 05:30:00,34.9,17.7,30.04,North,32767,-999.0,0.0,49,0.00,,,0.00,0,Wunderground v.1.15,2013-03-15 09:30:00,
2013-03-15 05:40:00,34.9,18.1,30.05,North,32767,-999.0,0.0,50,0.00,,,0.00,0,Wunderground v.1.15,2013-03-15 09:40:00,
2013-03-15 05:50:00,34.9,17.2,30.06,North,32767,-999.0,0.0,48,0.00,,,0.00,0,Wunderground v.1.15,2013-03-15 09:50:00,
2013-03-15 05:55:00,34.9,17.7,30.06,North,32767,-999.0,0.0,49,0.00,,,0.00,0,Wunderground v.1.15,2013-03-15 09:55:00,
2013-03-15 06:05:00,34.9,17.7,30.06,North,32767,-999.0,0.0,49,0.00,,,0.00,0,Wunderground v.1.15,2013-03-15 10:05:00,
2013-03-15 06:10:00,35.0,17.3,30.06,North,32767,-999.0,0.0,48,0.00,,,0.00,0,Wunderground v.1.15,2013-03-15 10:10:00,
2013-03-15 06:15:00,35.0,17.3,30.06,North,32767,-999.0,0.0,48,0.00,,,0.00,0,Wunderground v.1.15,2013-03-15 10:15:00,
2013-03-15 06:25:00,35.0,17.3,30.06,North,32767,-999.0,0.0,48,0.00,,,0.00,0,Wunderground v.1.15,2013-03-15 10:25:00,
2013-03-15 06:30:00,35.0,17.3,30.06,North,32767,-999.0,0.0,48,0.00,,,0.00,0,Wunderground v.1.15,2013-03-15 10:30:00,
2013-03-15 06:35:00,34.9,17.7,30.06,North,32767,-999.0,0.0,49,0.00,,,0.00,0,Wunderground v.1.15,2013-03-15 10:35:00,
2013-03-15 06:45:00,34.4,18.1,30.06,North,32767,-999.0,0.0,51,0.00,,,0.00,0,Wunderground v.1.15,2013-03-15 10:45:00,
2013-03-15 06:50:00,34.3,18.5,30.06,North,32767,-999.0,0.0,52,0.00,,,0.00,0,Wunderground v.1.15,2013-03-15 10:50:00,
2013-03-15 07:00:00,34.1,18.3,30.06,North,32767,-999.0,0.0,52,0.00,,,0.00,0,Wunderground v.1.15,2013-03-15 11:00:00,
2013-03-15 07:10:00,34.0,19.5,30.06,North,32767,-999.0,0.0,55,0.00,,,0.00,0,Wunderground v.1.15,2013-03-15 11:10:00,
2013-03-15 07:15:00,33.8,18.5,30.06,North,32767,-999.0,0.0,53,0.00,,,0.00,0,Wunderground v.1.15,2013-03-15 11:15:00,
2013-03-15 15:50:00,62.1,30.3,29.86,WSW,251,3.0,4.0,30,0.00,,,0.00,225,Wunderground v.1.15,2013-03-15 19:50:00,
2013-03-15 16:00:00,62.0,31.8,29.86,SSE,154,3.0,3.0,32,0.00,,,0.00,211,Wunderground v.1.15,2013-03-15 20:00:00,
2013-03-15 16:10:00,61.6,29.8,29.86,SW,215,3.0,3.0,30,0.00,,,0.00,201,Wunderground v.1.15,2013-03-15 20:10:00,
2013-03-15 16:15:00,61.6,31.4,29.86,SW,223,2.0,3.0,32,0.00,,,0.00,188,Wunderground v.1.15,2013-03-15 20:15:00,
2013-03-15 16:25:00,61.5,31.3,29.85,SW,224,2.0,7.0,32,0.00,,,0.00,185,Wunderground v.1.15,2013-03-15 20:25:00,
2013-03-15 16:35:00,61.3,31.2,29.85,SSE,168,2.0,4.0,32,0.00,,,0.00,144,Wunderground v.1.15,2013-03-15 20:35:00,
2013-03-15 16:45:00,60.9,31.6,29.85,West,267,2.0,2.0,33,0.00,,,0.00,135,Wunderground v.1.15,2013-03-15 20:45:00,
2013-03-15 16:50:00,60.7,32.1,29.84,West,267,1.0,1.0,34,0.00,,,0.00,120,Wunderground v.1.15,2013-03-15 20:50:00,
2013-03-15 17:00:00,60.5,32.0,29.84,North,32767,-999.0,0.0,34,0.00,,,0.00,104,Wunderground v.1.15,2013-03-15 21:00:00,
2013-03-15 17:05:00,60.4,32.6,29.84,North,32767,-999.0,0.0,35,0.00,,,0.00,97,Wunderground v.1.15,2013-03-15 21:05:00,
2013-03-15 17:15:00,59.9,32.2,29.84,North,32767,-999.0,0.0,35,0.00,,,0.00,83,Wunderground v.1.15,2013-03-15 21:15:00,
2013-03-15 17:20:00,59.9,32.2,29.83,North,32767,-999.0,0.0,35,0.00,,,0.00,81,Wunderground v.1.15,2013-03-15 21:20:00,
2013-03-15 17:25:00,59.8,32.8,29.83,North,32767,-999.0,0.0,36,0.00,,,0.00,84,Wunderground v.1.15,2013-03-15 21:25:00,
2013-03-15 17:30:00,59.8,32.8,29.83,North,32767,-999.0,0.0,36,0.00,,,0.00,84,Wunderground v.1.15,2013-03-15 21:30:00,
2013-03-15 17:40:00,59.8,32.8,29.83,North,32767,-999.0,0.0,36,0.00,,,0.00,93,Wunderground v.1.15,2013-03-15 21:40:00,
2013-03-15 17:45:00,59.9,32.9,29.83,North,32767,-999.0,0.0,36,0.00,,,0.00,93,Wunderground v.1.15,2013-03-15 21:45:00,
2013-03-15 17:55:00,60.1,33.7,29.82,North,32767,-999.0,0.0,37,0.00,,,0.00,100,Wunderground v.1.15,2013-03-15 21:55:00,
2013-03-15 18:00:00,60.4,34.0,29.82,North,32767,-999.0,0.0,37,0.00,,,0.00,93,Wunderground v.1.15,2013-03-15 22:00:00,
2013-03-15 18:10:00,60.4,34.0,29.82,North,32767,-999.0,0.0,37,0.00,,,0.00,77,Wunderground v.1.15,2013-03-15 22:10:00,
2013-03-15 18:20:00,60.4,34.0,29.82,SW,232,1.0,2.0,37,0.00,,,0.00,67,Wunderground v.1.15,2013-03-15 22:20:00,
2013-03-15 18:25:00,60.4,34.7,29.82,NW,313,1.0,2.0,38,0.00,,,0.00,44,Wunderground v.1.15,2013-03-15 22:25:00,
2013-03-15 18:30:00,60.2,33.8,29.82,NW,313,1.0,1.0,37,0.00,,,0.00,39,Wunderground v.1.15,2013-03-15 22:30:00,
2013-03-15 18:35:00,59.9,34.2,29.82,North,32767,-999.0,1.0,38,0.00,,,0.00,35,Wunderground v.1.15,2013-03-15 22:35:00,
2013-03-15 18:45:00,59.3,34.3,29.82,North,32767,-999.0,0.0,39,0.00,,,0.00,18,Wunderground v.1.15,2013-03-15 22:45:00,
2013-03-15 18:50:00,58.9,34.6,29.82,North,32767,-999.0,0.0,40,0.00,,,0.00,16,Wunderground v.1.15,2013-03-15 22:50:00,
2013-03-15 19:00:00,58.1,33.9,29.82,North,32767,-999.0,0.0,40,0.00,,,0.00,9,Wunderground v.1.15,2013-03-15 23:00:00,
2013-03-15 19:10:00,57.3,33.8,29.82,North,32767,-999.0,0.0,41,0.00,,,0.00,5,Wunderground v.1.15,2013-03-15 23:10:00,
2013-03-15 19:15:00,57.0,34.1,29.82,North,32767,-999.0,0.0,42,0.00,,,0.00,5,Wunderground v.1.15,2013-03-15 23:15:00,
2013-03-15 19:25:00,56.2,34.6,29.82,North,32767,-999.0,0.0,44,0.00,,,0.00,0,Wunderground v.1.15,2013-03-15 23:25:00,
2013-03-15 19:30:00,55.9,34.3,29.82,North,32767,-999.0,0.0,44,0.00,,,0.00,0,Wunderground v.1.15,2013-03-15 23:30:00,
2013-03-15 19:40:00,55.1,34.1,29.82,North,32767,-999.0,0.0,45,0.00,,,0.00,0,Wunderground v.1.15,2013-03-15 23:40:00,
2013-03-15 19:45:00,54.8,34.4,29.82,North,32767,-999.0,0.0,46,0.00,,,0.00,0,Wunderground v.1.15,2013-03-15 23:45:00,
2013-03-15 19:55:00,54.4,34.6,29.82,North,32767,-999.0,0.0,47,0.00,,,0.00,0,Wunderground v.1.15,2013-03-15 23:55:00,
2013-03-15 20:00:00,54.1,34.3,29.82,North,32767,-999.0,0.0,47,0.00,,,0.00,0,Wunderground v.1.15,2013-03-16 00:00:00,
2013-03-15 20:05:00,53.9,34.1,29.82,North,32767,-999.0,0.0,47,0.00,,,0.00,0,Wunderground v.1.15,2013-03-16 00:05:00,
2013-03-15 20:15:00,53.6,34.9,29.82,North,32767,-999.0,0.0,49,0.00,,,0.00,0,Wunderground v.1.15,2013-03-16 00:15:00,
2013-03-15 20:25:00,53.2,34.5,29.82,North,32767,-999.0,0.0,49,0.00,,,0.00,0,Wunderground v.1.15,2013-03-16 00:25:00,
2013-03-15 20:35:00,53.1,34.9,29.82,North,32767,-999.0,0.0,50,0.00,,,0.00,0,Wunderground v.1.15,2013-03-16 00:35:00,
2013-03-15 20:45:00,52.9,34.8,29.82,North,32767,-999.0,0.0,50,0.00,,,0.00,0,Wunderground v.1.15,2013-03-16 00:45:00,
2013-03-15 20:50:00,52.8,34.7,29.82,North,32767,-999.0,0.0,50,0.00,,,0.00,0,Wunderground v.1.15,2013-03-16 00:50:00,
2013-03-15 21:00:00,52.5,34.9,29.82,North,32767,-999.0,0.0,51,0.00,,,0.00,0,Wunderground v.1.15,2013-03-16 01:00:00,
2013-03-15 21:10:00,52.0,34.9,29.82,North,32767,-999.0,0.0,52,0.00,,,0.00,0,Wunderground v.1.15,2013-03-16 01:10:00,
2013-03-15 21:20:00,51.7,34.6,29.81,North,32767,-999.0,0.0,52,0.00,,,0.00,0,Wunderground v.1.15,2013-03-16 01:20:00,
2013-03-15 21:25:00,51.7,35.1,29.81,North,32767,-999.0,0.0,53,0.00,,,0.00,0,Wunderground v.1.15,2013-03-16 01:25:00,
2013-03-15 21:30:00,51.6,35.0,29.81,North,32767,-999.0,0.0,53,0.00,,,0.00,0,Wunderground v.1.15,2013-03-16 01:30:00,
2013-03-15 21:35:00,51.4,34.8,29.81,North,32767,-999.0,0.0,53,0.00,,,0.00,0,Wunderground v.1.15,2013-03-16 01:35:00,
2013-03-15 21:40:00,51.4,34.8,29.81,North,32767,-999.0,0.0,53,0.00,,,0.00,0,Wunderground v.1.15,2013-03-16 01:40:00,
2013-03-15 21:45:00,51.3,34.7,29.81,North,32767,-999.0,0.0,53,0.00,,,0.00,0,Wunderground v.1.15,2013-03-16 01:45:00,
2013-03-15 21:50:00,51.1,35.0,29.81,North,32767,-999.0,0.0,54,0.00,,,0.00,0,Wunderground v.1.15,2013-03-16 01:50:00,
2013-03-15 21:55:00,51.0,34.9,29.81,North,32767,-999.0,0.0,54,0.00,,,0.00,0,Wunderground v.1.15,2013-03-16 01:55:00,
2013-03-15 22:05:00,50.8,34.7,29.81,North,32767,-999.0,0.0,54,0.00,,,0.00,0,Wunderground v.1.15,2013-03-16 02:05:00,
2013-03-15 22:10:00,50.8,34.7,29.81,North,32767,-999.0,0.0,54,0.00,,,0.00,0,Wunderground v.1.15,2013-03-16 02:10:00,
2013-03-15 22:20:00,50.5,34.9,29.81,North,32767,-999.0,0.0,55,0.00,,,0.00,0,Wunderground v.1.15,2013-03-16 02:20:00,
2013-03-15 22:25:00,50.5,34.5,29.81,North,32767,-999.0,0.0,54,0.00,,,0.00,0,Wunderground v.1.15,2013-03-16 02:25:00,
2013-03-15 22:30:00,50.5,34.9,29.81,North,32767,-999.0,0.0,55,0.00,,,0.00,0,Wunderground v.1.15,2013-03-16 02:30:00,
2013-03-15 22:40:00,50.5,34.9,29.81,North,32767,-999.0,0.0,55,0.00,,,0.00,0,Wunderground v.1.15,2013-03-16 02:40:00,
2013-03-15 22:45:00,50.5,34.9,29.81,North,32767,-999.0,0.0,55,0.00,,,0.00,0,Wunderground v.1.15,2013-03-16 02:45:00,
2013-03-15 22:50:00,50.7,35.1,29.81,North,32767,-999.0,0.0,55,0.00,,,0.00,0,Wunderground v.1.15,2013-03-16 02:50:00,
2013-03-15 23:00:00,50.7,35.1,29.81,North,32767,-999.0,0.0,55,0.00,,,0.00,0,Wunderground v.1.15,2013-03-16 03:00:00,
2013-03-15 23:05:00,50.5,34.9,29.80,North,32767,-999.0,0.0,55,0.00,,,0.00,0,Wunderground v.1.15,2013-03-16 03:05:00,
2013-03-15 23:15:00,50.2,35.1,29.80,North,32767,-999.0,0.0,56,0.00,,,0.00,0,Wunderground v.1.15,2013-03-16 03:15:00,
2013-03-15 23:20:00,50.1,35.0,29.79,North,32767,-999.0,0.0,56,0.00,,,0.00,0,Wunderground v.1.15,2013-03-16 03:20:00,
2013-03-15 23:30:00,49.9,35.3,29.79,North,32767,-999.0,0.0,57,0.00,,,0.00,0,Wunderground v.1.15,2013-03-16 03:30:00,
2013-03-15 23:35:00,49.8,34.7,29.79,North,32767,-999.0,0.0,56,0.00,,,0.00,0,Wunderground v.1.15,2013-03-16 03:35:00,
2013-03-15 23:40:00,49.6,35.0,29.79,North,32767,-999.0,0.0,57,0.00,,,0.00,0,Wunderground v.1.15,2013-03-16 03:40:00,
2013-03-15 23:50:00,49.4,35.2,29.78,North,32767,-999.0,0.0,58,0.00,,,0.00,0,Wunderground v.1.15,2013-03-16 03:50:00,